首页
METAR-TAF:

METAR-TAF

机场 :

Latrobe, 宾夕法尼亚州, 美国

纬度: 40-17N, 经度: 079-24W, 海拔: 361米

当前天气观测

该预报发布于16分钟前的16:53 UTC
静风
温度 5°C
湿度 56%
气压 1025 hPa
能見度: 16.1公里
少量云层高于10000英尺

METAR: KLBE 171653Z 00000KT 10SM FEW100 05/M03 A3026

时间: 12:09 (17:09 UTC)

预报

该预报发布于3小时和4分钟前的14:05 UTC
预报有效从17日的 14点(UTC)到 18日的 12点(UTC)
风速节,风向
能見度: 8.0公里
天空无云
轻雾
从 17日的 1500点(UTC)
风速4节,风向东转东南
能見度: 10公里
多云层高于15000英尺
从 18日的 0500点(UTC)
风速12节,风向东南,有时为21节阵风
能見度: 10公里
阴天层高于8000英尺
附近有阵雨
从 18日的 0800点(UTC)
风速11节,风向,有时为20节阵风
能見度: 9.7公里
阴天层高于4000英尺
小阵雨

TAF: KLBE 171405Z 1714/1812 00000KT 5SM BR SKC FM171500 12004KT P6SM BKN150 FM180500 14012G21KT P6SM VCSH OVC080 FM180800 17011G20KT 6SM -SHRA OVC040 WS020/20040KT

超过4000个机场的气象观测和天气预报(METAR&TAF报告)。

可查询的气象台以黄色和红色小点在地图上表示。

将鼠标移到小点上方,可查看气象台名称。

然后点击查看天气观测和预报。

如需切换地图:点击带黑十字的绿色按钮放大地图;点击带横线的绿色按钮缩小地图;或者点击绿色箭头查看邻近地区的地图。


METAR-TAF: